Time;durP1;ratioP1;P1;durP2;ratioP2;P2;SDS_P1;SDS_P2;PMS_P1;PMS_P2;Temp;Humidity;BMP_temperature;BMP_pressure;BME280_temperature;BME280_humidity;BME280_pressure;Samples;Min_cycle;Max_cycle;Signal;HPM_P1;HPM_P2
2022/05/11 00:01:00;;;;;;;4.05;3.75;;;19.30;62.40;;;;;;619221;230;26617;-70
2022/05/11 00:03:28;;;;;;;4.00;3.70;;;19.10;65.00;;;;;;618026;230;26638;-69
2022/05/11 00:05:56;;;;;;;6.80;3.85;;;19.10;65.00;;;;;;622729;230;26563;-70
2022/05/11 00:08:23;;;;;;;4.12;3.83;;;18.90;66.70;;;;;;620903;229;26568;-70
2022/05/11 00:10:50;;;;;;;4.05;3.65;;;18.80;67.50;;;;;;624584;230;26853;-70
2022/05/11 00:13:17;;;;;;;4.68;4.25;;;18.80;68.50;;;;;;625315;230;26598;-70
2022/05/11 00:15:44;;;;;;;4.20;3.90;;;18.70;69.60;;;;;;626005;230;26931;-70
2022/05/11 00:18:12;;;;;;;5.43;4.00;;;18.60;70.50;;;;;;626000;230;26570;-70
2022/05/11 00:20:39;;;;;;;4.20;3.95;;;18.60;71.10;;;;;;626096;230;26813;-70
2022/05/11 00:23:06;;;;;;;4.05;3.75;;;18.50;71.30;;;;;;626113;226;26582;-70
2022/05/11 00:25:33;;;;;;;4.20;3.80;;;18.50;72.10;;;;;;626170;228;26793;-70
2022/05/11 00:28:00;;;;;;;6.15;4.15;;;18.40;72.50;;;;;;618965;228;26626;-70
2022/05/11 00:30:28;;;;;;;4.00;3.60;;;18.40;73.10;;;;;;620959;228;26574;-70
2022/05/11 00:32:56;;;;;;;4.30;4.00;;;18.20;74.20;;;;;;625072;226;26642;-70
2022/05/11 00:35:23;;;;;;;4.95;4.55;;;18.20;74.60;;;;;;625319;229;26613;-70
2022/05/11 00:37:51;;;;;;;4.10;3.80;;;18.10;75.00;;;;;;626828;229;26563;-70
2022/05/11 00:40:19;;;;;;;3.67;3.47;;;18.10;75.00;;;;;;625726;229;26623;-70
2022/05/11 00:42:46;;;;;;;4.62;4.22;;;18.10;75.50;;;;;;626482;225;26615;-70
2022/05/11 00:45:13;;;;;;;4.72;4.03;;;18.00;75.60;;;;;;625975;228;26855;-70
2022/05/11 00:47:41;;;;;;;4.07;3.50;;;18.00;76.70;;;;;;623891;228;26640;-70
2022/05/11 00:50:10;;;;;;;4.10;3.75;;;17.90;76.10;;;;;;619689;229;26640;-70
2022/05/11 00:52:41;;;;;;;4.25;3.95;;;17.80;75.60;;;;;;626109;229;26607;-70
2022/05/11 00:55:09;;;;;;;4.97;4.00;;;17.80;75.60;;;;;;626309;229;26564;-70
2022/05/11 00:57:37;;;;;;;3.90;3.70;;;17.70;75.60;;;;;;626330;229;26531;-70
2022/05/11 01:00:05;;;;;;;4.40;4.00;;;17.70;75.40;;;;;;625656;229;26548;-70
2022/05/11 01:02:33;;;;;;;4.10;3.47;;;17.70;75.30;;;;;;618591;229;26803;-70
2022/05/11 01:05:00;;;;;;;4.15;3.80;;;17.60;75.20;;;;;;621506;229;26556;-70
2022/05/11 01:07:28;;;;;;;4.00;3.70;;;17.60;75.20;;;;;;624790;230;26803;-70
2022/05/11 01:09:54;;;;;;;4.00;3.60;;;17.60;75.30;;;;;;625878;230;26547;-70
2022/05/11 01:12:21;;;;;;;4.30;3.90;;;17.60;75.60;;;;;;624571;230;27229;-70
2022/05/11 01:14:49;;;;;;;3.80;3.50;;;17.50;75.80;;;;;;626027;230;26559;-70
2022/05/11 01:17:18;;;;;;;4.10;3.80;;;17.50;75.50;;;;;;626319;230;26591;-70
2022/05/11 01:19:46;;;;;;;3.60;3.30;;;17.50;75.60;;;;;;626516;230;26535;-70
2022/05/11 01:22:23;;;;;;;3.83;3.50;;;17.50;75.60;;;;;;626045;226;26560;-70
2022/05/11 01:24:50;;;;;;;3.72;3.53;;;17.60;75.30;;;;;;625958;227;26535;-70
2022/05/11 01:27:27;;;;;;;3.50;3.30;;;17.60;75.10;;;;;;625777;230;26551;-70
2022/05/11 01:29:54;;;;;;;3.37;3.17;;;17.60;75.10;;;;;;619154;230;26578;-70
2022/05/11 01:32:21;;;;;;;3.70;3.40;;;17.60;76.20;;;;;;620150;230;26854;-70
2022/05/11 01:34:50;;;;;;;3.58;3.28;;;17.60;76.40;;;;;;618853;230;26611;-70
2022/05/11 01:37:17;;;;;;;3.47;3.28;;;17.60;75.70;;;;;;616843;230;26850;-70
2022/05/11 01:39:44;;;;;;;3.75;3.37;;;17.60;75.90;;;;;;618705;230;26594;-70
2022/05/11 01:42:11;;;;;;;3.45;3.25;;;17.60;75.70;;;;;;621634;227;26644;-70
2022/05/11 01:44:40;;;;;;;3.25;2.95;;;17.60;75.70;;;;;;626049;230;26610;-70
2022/05/11 01:47:07;;;;;;;3.30;3.10;;;17.50;75.50;;;;;;618889;229;26563;-70
2022/05/11 01:49:34;;;;;;;3.22;3.00;;;17.50;75.50;;;;;;620548;230;26590;-70
2022/05/11 01:52:02;;;;;;;3.50;3.20;;;17.60;75.80;;;;;;625983;227;26711;-71
2022/05/11 01:54:30;;;;;;;3.60;3.40;;;17.50;76.50;;;;;;626217;229;26654;-71
2022/05/11 01:57:00;;;;;;;3.40;3.15;;;17.50;77.20;;;;;;626817;229;26625;-70
2022/05/11 01:59:26;;;;;;;3.47;3.10;;;17.50;77.70;;;;;;626520;229;26566;-70
2022/05/11 02:01:54;;;;;;;3.65;3.35;;;17.50;77.70;;;;;;621132;229;26558;-70
2022/05/11 02:09:28;;;;;;;3.37;3.08;;;17.40;77.70;;;;;;624929;229;26571;-71
2022/05/11 02:11:55;;;;;;;3.28;2.97;;;17.40;76.80;;;;;;625100;227;26902;-71
2022/05/11 02:14:22;;;;;;;3.20;2.95;;;17.40;77.50;;;;;;623677;229;26565;-71
2022/05/11 02:16:49;;;;;;;3.42;3.12;;;17.40;77.70;;;;;;621666;229;26780;-70
2022/05/11 02:19:17;;;;;;;3.50;3.08;;;17.40;77.60;;;;;;625903;230;26543;-70
2022/05/11 02:21:44;;;;;;;3.40;2.92;;;17.50;78.40;;;;;;625134;230;26936;-70
2022/05/11 02:24:11;;;;;;;3.35;3.10;;;17.50;79.00;;;;;;626193;230;26555;-70
2022/05/11 02:26:38;;;;;;;3.17;2.92;;;17.50;78.10;;;;;;626063;230;26922;-70
2022/05/11 02:29:05;;;;;;;3.03;2.70;;;17.40;78.20;;;;;;621848;230;26595;-70
2022/05/11 02:31:33;;;;;;;3.10;2.90;;;17.40;77.20;;;;;;625475;230;26918;-70
2022/05/11 02:34:02;;;;;;;3.17;2.97;;;17.40;78.40;;;;;;623982;227;26626;-70
2022/05/11 02:36:28;;;;;;;2.72;2.53;;;17.30;77.80;;;;;;623865;230;26575;-70
2022/05/11 02:38:56;;;;;;;3.37;3.05;;;17.30;78.40;;;;;;624300;230;26580;-70
2022/05/11 02:41:24;;;;;;;3.55;2.60;;;17.30;78.10;;;;;;624927;230;26568;-70
2022/05/11 02:43:52;;;;;;;3.47;2.87;;;17.30;78.10;;;;;;625077;227;26576;-70
2022/05/11 02:46:19;;;;;;;3.50;2.90;;;17.30;77.20;;;;;;626225;228;26563;-70
2022/05/11 02:48:46;;;;;;;2.97;2.78;;;17.20;77.80;;;;;;625215;230;26810;-70
2022/05/11 02:51:14;;;;;;;3.20;3.00;;;17.20;77.50;;;;;;624977;230;26594;-70
2022/05/11 02:53:42;;;;;;;3.17;2.97;;;17.20;77.60;;;;;;623495;229;26632;-70
2022/05/11 02:56:10;;;;;;;3.70;3.08;;;17.20;77.90;;;;;;626104;230;26665;-70
2022/05/11 02:58:38;;;;;;;3.10;2.90;;;17.20;77.40;;;;;;625039;229;26566;-70
2022/05/11 03:01:06;;;;;;;2.90;2.70;;;17.20;77.40;;;;;;618366;229;26929;-70
2022/05/11 03:03:34;;;;;;;3.28;3.08;;;17.20;77.10;;;;;;625255;227;26610;-70
2022/05/11 03:06:01;;;;;;;3.17;2.97;;;17.20;77.60;;;;;;618394;233;26570;-70
2022/05/11 03:08:29;;;;;;;3.10;2.80;;;17.20;77.80;;;;;;619064;229;26575;-70
2022/05/11 03:10:57;;;;;;;3.00;2.80;;;17.10;78.00;;;;;;618287;229;26535;-70
2022/05/11 03:13:25;;;;;;;2.92;2.60;;;17.10;79.50;;;;;;626417;229;26546;-70
2022/05/11 03:15:53;;;;;;;2.97;2.78;;;17.10;79.50;;;;;;626946;229;26543;-71
2022/05/11 03:18:19;;;;;;;2.90;2.70;;;17.10;78.70;;;;;;626944;229;26531;-70
2022/05/11 03:20:47;;;;;;;3.42;3.15;;;17.10;79.60;;;;;;626741;229;26551;-70
2022/05/11 03:23:15;;;;;;;3.08;2.60;;;17.00;79.50;;;;;;626406;229;26582;-70
2022/05/11 03:25:42;;;;;;;3.08;2.87;;;17.10;79.20;;;;;;626588;229;26563;-70
2022/05/11 03:28:09;;;;;;;2.97;2.78;;;17.00;80.70;;;;;;626359;229;26591;-71
2022/05/11 03:30:36;;;;;;;2.90;2.70;;;17.00;80.80;;;;;;617662;233;26566;-70
2022/05/11 03:35:37;;;;;;;3.17;2.90;;;17.00;80.90;;;;;;624763;230;26547;-70
2022/05/11 03:38:05;;;;;;;2.92;2.67;;;17.00;80.70;;;;;;618983;230;26638;-70
2022/05/11 03:40:32;;;;;;;3.10;2.90;;;17.00;82.20;;;;;;624713;230;26832;-70
2022/05/11 03:42:59;;;;;;;3.22;2.60;;;17.00;82.20;;;;;;625110;230;26793;-70
2022/05/11 03:45:28;;;;;;;2.62;2.42;;;17.00;81.20;;;;;;625896;230;26571;-70
2022/05/11 03:47:55;;;;;;;3.35;3.15;;;17.00;81.20;;;;;;626320;230;26584;-71
2022/05/11 03:50:23;;;;;;;2.90;2.67;;;17.00;81.40;;;;;;618868;230;26631;-70
2022/05/11 03:52:50;;;;;;;2.72;2.53;;;17.00;81.90;;;;;;621585;230;26818;-70
2022/05/11 03:55:17;;;;;;;3.70;2.90;;;17.00;81.10;;;;;;623573;230;26563;-70
2022/05/11 03:57:45;;;;;;;2.67;2.47;;;17.10;82.30;;;;;;620524;230;26812;-69
2022/05/11 04:00:16;;;;;;;3.40;3.10;;;17.00;82.20;;;;;;625982;230;26795;-70
2022/05/11 04:02:43;;;;;;;3.10;2.75;;;17.10;82.20;;;;;;624825;230;26598;-70
2022/05/11 04:05:10;;;;;;;2.55;2.35;;;17.00;81.30;;;;;;619183;229;26812;-70
2022/05/11 04:07:38;;;;;;;2.92;2.72;;;17.10;82.10;;;;;;621944;229;26606;-70
2022/05/11 04:10:07;;;;;;;3.17;2.75;;;17.10;82.40;;;;;;625975;229;26551;-70
2022/05/11 04:12:34;;;;;;;3.08;2.87;;;17.10;82.40;;;;;;627065;229;26575;-70
2022/05/11 04:15:02;;;;;;;3.40;3.10;;;17.10;82.90;;;;;;626894;229;26872;-70
2022/05/11 04:17:29;;;;;;;3.03;2.80;;;17.20;83.80;;;;;;624050;229;26596;-70
2022/05/11 04:19:56;;;;;;;3.03;2.83;;;17.20;83.80;;;;;;620240;229;27267;-70
2022/05/11 04:22:24;;;;;;;3.15;2.95;;;17.20;83.90;;;;;;621968;229;26598;-70
2022/05/11 04:24:52;;;;;;;3.12;2.87;;;17.30;84.70;;;;;;622460;229;26560;-70
2022/05/11 04:27:20;;;;;;;3.12;2.85;;;17.30;85.60;;;;;;623552;229;26563;-70
2022/05/11 04:29:48;;;;;;;3.55;3.12;;;17.30;85.20;;;;;;621714;229;26559;-70
2022/05/11 04:32:16;;;;;;;4.20;3.08;;;17.40;86.40;;;;;;622497;229;26600;-70
2022/05/11 04:34:43;;;;;;;3.15;2.92;;;17.40;85.90;;;;;;624207;229;27384;-70
2022/05/11 04:37:12;;;;;;;3.33;2.90;;;17.40;85.40;;;;;;625153;229;26792;-70
2022/05/11 04:39:39;;;;;;;4.28;2.90;;;17.50;85.10;;;;;;625854;229;26547;-70
2022/05/11 04:42:06;;;;;;;3.87;2.85;;;17.50;85.20;;;;;;619762;230;26613;-70
2022/05/11 04:44:33;;;;;;;3.12;2.92;;;17.60;86.50;;;;;;622114;230;26550;-70
2022/05/11 04:47:00;;;;;;;3.40;3.20;;;17.60;86.70;;;;;;619105;229;26843;-70
2022/05/11 04:49:28;;;;;;;3.62;3.00;;;17.60;86.60;;;;;;624546;230;26560;-69
2022/05/11 04:52:00;;;;;;;4.25;2.87;;;17.60;87.00;;;;;;624747;228;26798;-70
2022/05/11 04:54:27;;;;;;;3.33;2.80;;;17.60;87.80;;;;;;624787;230;26817;-70
2022/05/11 04:56:54;;;;;;;3.15;2.90;;;17.60;87.50;;;;;;619920;230;26558;-70
2022/05/11 04:59:22;;;;;;;2.92;2.72;;;17.60;87.90;;;;;;622103;230;26814;-70
2022/05/11 05:01:49;;;;;;;3.05;2.85;;;17.60;87.10;;;;;;626101;230;26576;-71
2022/05/11 05:04:16;;;;;;;3.62;2.83;;;17.70;87.20;;;;;;621441;230;26602;-69
2022/05/11 05:06:44;;;;;;;5.05;2.55;;;17.70;86.00;;;;;;623065;230;26583;-70
2022/05/11 05:09:11;;;;;;;3.15;2.95;;;17.80;87.20;;;;;;624503;230;26626;-69
2022/05/11 05:11:39;;;;;;;3.10;2.87;;;17.70;87.20;;;;;;624921;230;26550;-70
2022/05/11 05:14:08;;;;;;;4.82;3.10;;;17.80;86.20;;;;;;619613;230;26639;-70
2022/05/11 05:16:35;;;;;;;2.53;2.40;;;17.80;86.10;;;;;;626724;228;26582;-70
2022/05/11 05:19:02;;;;;;;3.10;2.50;;;17.80;87.50;;;;;;623523;229;26608;-70
2022/05/11 05:21:29;;;;;;;3.10;2.72;;;17.80;85.70;;;;;;623896;229;26999;-70
2022/05/11 05:23:56;;;;;;;4.82;3.12;;;17.90;86.90;;;;;;623547;227;26562;-69
2022/05/11 05:26:23;;;;;;;4.15;2.78;;;17.80;86.80;;;;;;622939;229;26838;-69
2022/05/11 05:31:24;;;;;;;2.80;2.60;;;17.80;85.90;;;;;;625022;229;26619;-70
2022/05/11 05:33:58;;;;;;;4.18;2.47;;;17.90;86.40;;;;;;625418;225;26871;-69
2022/05/11 05:36:19;;;;;;;4.40;2.60;;;17.90;86.30;;;;;;621305;229;26856;-69
2022/05/11 05:38:47;;;;;;;3.15;2.95;;;18.10;86.70;;;;;;623139;229;26554;-70
2022/05/11 05:41:15;;;;;;;3.78;2.70;;;18.10;87.00;;;;;;623963;229;26559;-69
2022/05/11 05:43:43;;;;;;;3.08;2.87;;;18.20;86.50;;;;;;624145;228;26587;-70
2022/05/11 05:46:11;;;;;;;3.03;2.80;;;18.20;86.40;;;;;;622772;229;26544;-69
2022/05/11 05:48:38;;;;;;;4.07;3.10;;;18.30;86.60;;;;;;622987;229;26563;-70
2022/05/11 05:51:06;;;;;;;2.90;2.70;;;18.30;86.20;;;;;;626133;229;26800;-70
2022/05/11 05:53:34;;;;;;;2.95;2.75;;;18.20;85.40;;;;;;624111;230;26558;-70
2022/05/11 05:56:01;;;;;;;3.53;2.70;;;18.40;85.70;;;;;;623332;230;26543;-70
2022/05/11 05:58:29;;;;;;;2.60;2.45;;;18.50;84.20;;;;;;623008;230;26567;-70
2022/05/11 06:00:57;;;;;;;3.33;3.08;;;18.60;84.40;;;;;;620720;230;26586;-72
2022/05/11 06:03:25;;;;;;;3.25;2.95;;;18.60;84.40;;;;;;625459;230;26572;-69
2022/05/11 06:05:53;;;;;;;3.17;2.85;;;18.90;83.20;;;;;;624783;230;26630;-70
2022/05/11 06:08:23;;;;;;;72.80;18.12;;;18.90;83.10;;;;;;623365;230;26652;-69
2022/05/11 06:10:49;;;;;;;25.48;7.50;;;19.00;83.70;;;;;;622792;230;26618;-71
2022/05/11 06:13:17;;;;;;;13.38;3.80;;;19.00;83.70;;;;;;625283;230;26604;-72
2022/05/11 06:15:45;;;;;;;40.50;10.13;;;19.10;83.80;;;;;;626041;230;26556;-69
2022/05/11 06:18:13;;;;;;;28.08;8.18;;;19.10;83.10;;;;;;625335;230;26567;-69
2022/05/11 06:20:41;;;;;;;24.83;7.10;;;19.20;83.00;;;;;;617399;233;26646;-69
2022/05/11 06:23:09;;;;;;;8.02;4.20;;;19.20;81.30;;;;;;617499;230;26645;-68
2022/05/11 06:25:37;;;;;;;3.47;3.15;;;19.20;81.30;;;;;;619658;230;26627;-69
2022/05/11 06:28:04;;;;;;;7.50;3.58;;;19.20;81.90;;;;;;626267;227;26573;-68
2022/05/11 06:30:31;;;;;;;3.80;2.97;;;19.20;82.20;;;;;;626959;229;26614;-68
2022/05/11 06:33:00;;;;;;;3.35;3.05;;;19.10;81.50;;;;;;620287;229;26982;-68
2022/05/11 06:35:26;;;;;;;20.73;6.97;;;19.10;82.10;;;;;;625607;229;26528;-68
2022/05/11 06:37:55;;;;;;;4.37;3.10;;;19.40;81.10;;;;;;624527;229;26593;-69
2022/05/11 06:40:23;;;;;;;3.53;2.80;;;19.50;80.80;;;;;;620127;229;26562;-69
2022/05/11 06:42:50;;;;;;;3.80;3.17;;;19.50;80.70;;;;;;626784;229;26625;-69
2022/05/11 06:45:17;;;;;;;5.28;2.90;;;19.60;81.20;;;;;;623493;229;26983;-69
2022/05/11 06:47:44;;;;;;;3.15;2.90;;;19.70;81.00;;;;;;623369;229;26530;-70
2022/05/11 06:50:12;;;;;;;3.35;2.50;;;19.80;79.50;;;;;;618093;229;26796;-69
2022/05/11 06:52:39;;;;;;;3.70;3.37;;;19.80;78.80;;;;;;620117;229;26578;-68
2022/05/11 07:00:13;;;;;;;14.20;5.65;;;19.80;77.40;;;;;;621171;229;26560;-70
2022/05/11 07:02:41;;;;;;;9.93;4.87;;;19.80;77.80;;;;;;624910;228;26591;-70
2022/05/11 07:05:08;;;;;;;8.95;4.65;;;19.90;78.00;;;;;;625510;230;26903;-70
2022/05/11 07:07:37;;;;;;;3.20;2.87;;;20.40;77.20;;;;;;625167;230;26567;-70
2022/05/11 07:10:05;;;;;;;4.30;2.83;;;20.40;77.10;;;;;;622506;230;26852;-70
2022/05/11 07:12:35;;;;;;;3.80;3.25;;;20.50;76.30;;;;;;623560;230;26645;-71
2022/05/11 07:15:00;;;;;;;4.40;3.60;;;20.50;76.20;;;;;;622926;228;26569;-69
2022/05/11 07:17:35;;;;;;;4.00;3.28;;;20.60;75.90;;;;;;620832;228;26595;-69
2022/05/11 07:20:11;;;;;;;3.50;3.17;;;20.60;75.90;;;;;;624194;230;26620;-69
2022/05/11 07:22:39;;;;;;;3.55;3.25;;;20.70;75.60;;;;;;625491;230;26587;-69
2022/05/11 07:25:08;;;;;;;2.87;2.67;;;20.70;75.50;;;;;;623486;230;26627;-69
2022/05/11 07:27:35;;;;;;;4.65;2.90;;;20.60;75.40;;;;;;624831;228;26887;-69
2022/05/11 07:30:05;;;;;;;4.32;3.37;;;20.50;75.20;;;;;;622399;228;26631;-69
2022/05/11 07:32:32;;;;;;;36.47;8.77;;;20.50;75.30;;;;;;618815;230;26657;-69
2022/05/11 07:34:59;;;;;;;12.80;5.05;;;20.60;75.00;;;;;;621209;230;26579;-68
2022/05/11 07:37:26;;;;;;;11.88;4.70;;;21.00;74.30;;;;;;617593;230;26564;-67
2022/05/11 07:39:55;;;;;;;4.25;3.17;;;21.40;74.30;;;;;;621475;228;26624;-69
2022/05/11 07:42:21;;;;;;;11.32;5.40;;;21.40;72.10;;;;;;622848;229;26641;-68
2022/05/11 07:44:48;;;;;;;8.93;3.97;;;21.30;71.40;;;;;;626123;229;26560;-68
2022/05/11 07:47:15;;;;;;;2.90;2.70;;;21.20;71.40;;;;;;623814;229;26592;-65
2022/05/11 07:49:42;;;;;;;3.17;2.97;;;21.30;72.00;;;;;;624464;229;26646;-65
2022/05/11 07:52:10;;;;;;;3.33;3.03;;;21.40;71.10;;;;;;626536;229;26863;-66
2022/05/11 07:54:38;;;;;;;3.30;3.03;;;21.40;71.30;;;;;;625009;229;26614;-66
2022/05/11 08:02:11;;;;;;;3.33;3.03;;;21.10;70.70;;;;;;617893;229;26596;-65
2022/05/11 08:04:39;;;;;;;2.70;2.60;;;21.30;70.10;;;;;;622112;229;26562;-65
2022/05/11 08:07:05;;;;;;;2.60;2.50;;;21.60;69.30;;;;;;625234;229;26558;-66
2022/05/11 08:09:32;;;;;;;2.47;2.37;;;21.60;68.30;;;;;;621130;229;26854;-66
2022/05/11 08:12:00;;;;;;;3.17;2.85;;;21.90;68.50;;;;;;622965;226;26554;-65
2022/05/11 08:14:27;;;;;;;5.93;3.37;;;22.00;67.30;;;;;;619048;229;26835;-65
2022/05/11 08:16:54;;;;;;;5.00;3.30;;;22.30;66.30;;;;;;624247;230;26558;-65
2022/05/11 08:19:22;;;;;;;3.67;3.00;;;22.20;65.20;;;;;;620855;230;26876;-65
2022/05/11 08:21:49;;;;;;;6.60;3.33;;;22.10;65.50;;;;;;624072;230;26835;-64
2022/05/11 08:24:16;;;;;;;3.75;3.00;;;22.10;65.60;;;;;;619626;230;26608;-65
2022/05/11 08:26:46;;;;;;;5.47;3.12;;;22.10;66.00;;;;;;625108;230;26595;-65
2022/05/11 08:33:18;;;;;;;5.80;3.17;;;22.10;65.60;;;;;;617763;233;26814;-66
2022/05/11 08:34:13;;;;;;;3.47;3.10;;;22.60;64.90;;;;;;619587;230;26569;-65
2022/05/11 08:36:41;;;;;;;4.47;3.45;;;22.90;64.90;;;;;;624183;230;27272;-65
2022/05/11 08:39:07;;;;;;;3.20;2.95;;;22.90;64.80;;;;;;617572;233;26593;-65
2022/05/11 08:41:40;;;;;;;3.25;2.95;;;22.90;64.50;;;;;;617548;233;26921;-66
2022/05/11 08:44:09;;;;;;;3.10;2.85;;;23.10;63.90;;;;;;617299;233;26649;-66
2022/05/11 08:46:39;;;;;;;3.30;3.10;;;23.20;63.40;;;;;;617326;233;26610;-65
2022/05/11 08:49:07;;;;;;;3.12;2.90;;;23.20;63.40;;;;;;617246;232;26585;-66
2022/05/11 08:51:42;;;;;;;3.28;2.97;;;23.60;62.80;;;;;;618578;230;26605;-65
2022/05/11 08:54:15;;;;;;;3.10;2.90;;;24.00;61.50;;;;;;618397;232;26808;-66
2022/05/11 08:56:42;;;;;;;2.80;2.60;;;24.30;60.20;;;;;;618259;233;26828;-66
2022/05/11 08:59:11;;;;;;;3.28;3.08;;;24.40;60.00;;;;;;618196;233;26594;-66
2022/05/11 09:01:42;;;;;;;3.40;3.10;;;24.40;59.70;;;;;;617734;233;26552;-66
2022/05/11 09:04:07;;;;;;;3.33;3.12;;;24.40;59.30;;;;;;617823;233;26577;-66
2022/05/11 09:06:36;;;;;;;3.15;2.95;;;24.40;59.40;;;;;;617876;233;26835;-66
2022/05/11 09:09:01;;;;;;;3.28;2.97;;;24.30;59.40;;;;;;617629;232;26569;-66
2022/05/11 09:11:33;;;;;;;3.30;3.10;;;24.30;59.10;;;;;;617582;233;26812;-66
2022/05/11 09:14:01;;;;;;;3.10;2.90;;;24.70;59.40;;;;;;617564;233;26624;-66
2022/05/11 09:16:43;;;;;;;3.47;3.28;;;24.60;58.90;;;;;;617661;233;26572;-66
2022/05/11 09:19:21;;;;;;;3.12;2.92;;;24.60;58.90;;;;;;617624;232;26844;-66
2022/05/11 09:21:49;;;;;;;3.08;2.87;;;24.30;58.40;;;;;;617694;233;26563;-65
2022/05/11 09:24:32;;;;;;;2.67;2.47;;;24.00;58.70;;;;;;617666;233;26830;-65
2022/05/11 09:27:07;;;;;;;3.22;2.92;;;23.90;58.90;;;;;;617484;233;26586;-66
2022/05/11 09:29:37;;;;;;;2.70;2.60;;;23.90;59.40;;;;;;617188;233;26808;-66
2022/05/11 09:32:14;;;;;;;3.70;2.85;;;23.90;59.60;;;;;;617268;233;26844;-66
2022/05/11 09:34:42;;;;;;;3.30;3.00;;;24.50;59.30;;;;;;617390;233;26645;-66
2022/05/11 09:37:22;;;;;;;6.05;3.22;;;25.00;58.50;;;;;;617379;233;26643;-66
2022/05/11 09:39:50;;;;;;;3.83;3.40;;;24.90;58.40;;;;;;617397;233;26602;-66
2022/05/11 09:42:17;;;;;;;3.67;3.40;;;25.10;58.00;;;;;;617290;233;26629;-66
2022/05/11 09:44:45;;;;;;;4.00;3.30;;;25.50;57.40;;;;;;617399;233;26592;-66
2022/05/11 09:47:22;;;;;;;3.55;3.28;;;26.00;57.00;;;;;;617336;233;26623;-66
2022/05/11 09:49:50;;;;;;;4.37;3.72;;;25.90;56.90;;;;;;617338;233;26656;-71
2022/05/11 09:52:31;;;;;;;3.67;3.35;;;26.10;55.70;;;;;;617339;233;26626;-71
2022/05/11 09:54:59;;;;;;;3.60;3.30;;;26.40;55.70;;;;;;617164;233;26629;-71
2022/05/11 09:57:28;;;;;;;3.62;3.33;;;26.50;55.00;;;;;;617415;232;26608;-71
2022/05/11 10:00:07;;;;;;;3.62;3.42;;;26.40;55.20;;;;;;617395;233;26637;-71
2022/05/11 10:02:37;;;;;;;3.40;3.20;;;26.20;55.30;;;;;;618434;230;26624;-71
2022/05/11 10:05:05;;;;;;;3.95;3.65;;;26.10;55.20;;;;;;618646;232;26606;-70
2022/05/11 10:07:48;;;;;;;3.58;3.28;;;26.00;55.30;;;;;;618347;232;26991;-71
2022/05/11 10:10:18;;;;;;;3.62;3.30;;;25.70;55.60;;;;;;615751;233;26591;-70
2022/05/11 10:12:46;;;;;;;3.72;3.53;;;25.30;56.10;;;;;;617640;233;26577;-71
2022/05/11 10:23:06;;;;;;;3.80;3.50;;;24.70;56.70;;;;;;617676;233;26821;-71
2022/05/11 10:25:35;;;;;;;3.75;3.55;;;24.80;56.20;;;;;;617217;233;26816;-70
2022/05/11 10:28:18;;;;;;;4.22;3.92;;;25.00;55.70;;;;;;617502;233;26593;-70
2022/05/11 10:30:50;;;;;;;3.62;3.40;;;25.00;55.70;;;;;;617468;233;26790;-71
2022/05/11 10:33:23;;;;;;;3.10;2.90;;;25.20;55.70;;;;;;616951;233;26583;-71
2022/05/11 10:36:10;;;;;;;3.35;3.12;;;25.60;55.20;;;;;;617431;233;26570;-70
2022/05/11 10:38:58;;;;;;;3.03;2.83;;;25.60;55.20;;;;;;617314;233;26614;-71
2022/05/11 10:41:34;;;;;;;3.75;3.45;;;25.50;55.20;;;;;;616627;233;26809;-71
2022/05/11 10:44:05;;;;;;;3.92;3.67;;;25.70;54.90;;;;;;617086;233;26646;-71
2022/05/11 10:46:38;;;;;;;3.12;2.92;;;26.00;53.90;;;;;;617182;233;26606;-71
2022/05/11 10:49:17;;;;;;;3.53;3.33;;;25.90;53.80;;;;;;617010;233;26611;-71
2022/05/11 10:51:52;;;;;;;3.20;2.95;;;26.20;53.30;;;;;;617316;233;26656;-71
2022/05/11 10:54:34;;;;;;;3.08;2.92;;;26.20;53.70;;;;;;617326;233;26845;-71
2022/05/11 10:57:23;;;;;;;3.37;3.17;;;26.50;53.00;;;;;;614128;233;26715;-71
2022/05/11 11:00:06;;;;;;;4.30;3.92;;;26.70;52.30;;;;;;616868;233;26591;-71
2022/05/11 11:02:43;;;;;;;6.40;4.70;;;26.60;52.10;;;;;;617654;233;26607;-71
2022/05/11 11:05:10;;;;;;;3.47;3.17;;;26.90;52.00;;;;;;617044;233;26866;-71
2022/05/11 11:07:40;;;;;;;2.62;2.42;;;27.30;51.40;;;;;;616916;233;26605;-71
2022/05/11 11:10:19;;;;;;;3.50;3.28;;;27.30;51.40;;;;;;617065;233;26637;-71
2022/05/11 11:13:03;;;;;;;4.05;3.37;;;27.20;51.50;;;;;;616929;233;26723;-72
2022/05/11 11:15:30;;;;;;;2.75;2.55;;;27.20;51.50;;;;;;618913;232;26609;-71
2022/05/11 11:17:57;;;;;;;2.97;2.67;;;27.30;51.20;;;;;;618487;232;26628;-70
2022/05/11 11:20:24;;;;;;;2.47;2.28;;;27.50;50.90;;;;;;618319;233;27220;-71
2022/05/11 11:23:01;;;;;;;2.90;2.65;;;27.60;50.70;;;;;;618166;233;26655;-71
2022/05/11 11:25:28;;;;;;;4.32;4.03;;;27.80;50.60;;;;;;618015;233;26560;-71
2022/05/11 11:28:09;;;;;;;5.43;4.87;;;27.70;50.10;;;;;;617004;233;26561;-71
2022/05/11 11:30:35;;;;;;;4.70;4.30;;;27.50;49.60;;;;;;617966;233;26751;-71
2022/05/11 11:33:20;;;;;;;6.55;4.50;;;27.40;49.00;;;;;;617759;233;26570;-71
2022/05/11 11:35:50;;;;;;;4.90;4.53;;;27.40;48.90;;;;;;617639;233;26567;-71
2022/05/11 11:38:24;;;;;;;4.22;3.87;;;27.50;49.00;;;;;;617570;233;26582;-71
2022/05/11 11:41:09;;;;;;;3.00;2.80;;;27.50;49.00;;;;;;617647;233;26792;-71
2022/05/11 11:43:52;;;;;;;7.43;4.43;;;27.40;48.60;;;;;;614029;233;26652;-71
2022/05/11 11:46:38;;;;;;;7.65;4.53;;;27.70;48.40;;;;;;617698;233;26543;-71
2022/05/11 11:49:10;;;;;;;4.40;4.05;;;27.70;47.90;;;;;;617642;233;26558;-71
2022/05/11 11:51:49;;;;;;;3.08;2.97;;;27.80;47.10;;;;;;617374;233;26868;-71
2022/05/11 11:54:25;;;;;;;7.60;4.28;;;27.80;46.80;;;;;;617466;233;26595;-72
2022/05/11 11:56:54;;;;;;;4.62;4.22;;;28.00;46.40;;;;;;617341;233;26832;-71
2022/05/11 11:59:40;;;;;;;4.50;3.72;;;28.10;45.90;;;;;;617273;233;26590;-71
2022/05/11 12:02:14;;;;;;;3.75;3.42;;;28.00;45.60;;;;;;617282;233;26665;-72
2022/05/11 12:04:44;;;;;;;5.82;3.92;;;27.60;45.00;;;;;;617311;233;26604;-71
2022/05/11 12:17:41;;;;;;;6.05;3.65;;;28.40;43.50;;;;;;617431;233;26630;-71
2022/05/11 12:20:10;;;;;;;2.95;2.75;;;28.90;43.00;;;;;;617421;233;26609;-71
2022/05/11 12:22:38;;;;;;;2.53;2.33;;;28.80;42.90;;;;;;617760;233;26611;-71
2022/05/11 12:25:28;;;;;;;4.03;3.15;;;28.80;42.30;;;;;;618370;231;26569;-71
2022/05/11 12:27:56;;;;;;;4.62;3.70;;;28.60;43.50;;;;;;618291;232;26665;-70
2022/05/11 12:30:30;;;;;;;4.37;3.97;;;28.70;44.10;;;;;;618507;232;26551;-70
2022/05/11 12:32:57;;;;;;;3.40;3.10;;;28.70;44.00;;;;;;618170;233;26823;-71
2022/05/11 12:35:24;;;;;;;3.58;3.33;;;28.60;43.70;;;;;;618048;233;26601;-71
2022/05/11 12:37:54;;;;;;;4.55;3.50;;;28.80;44.10;;;;;;617987;232;26581;-71
2022/05/11 12:40:21;;;;;;;3.87;3.50;;;29.00;43.60;;;;;;617942;231;26551;-71
2022/05/11 12:42:48;;;;;;;6.45;3.62;;;29.30;42.70;;;;;;617930;233;26574;-71
2022/05/11 12:45:21;;;;;;;6.65;3.47;;;29.50;42.10;;;;;;617665;233;26824;-71
2022/05/11 12:47:49;;;;;;;6.43;3.62;;;29.70;42.20;;;;;;617559;233;26593;-72
2022/05/11 12:50:17;;;;;;;4.00;3.60;;;29.80;41.70;;;;;;617641;233;26796;-71
2022/05/11 12:52:45;;;;;;;3.50;3.30;;;29.20;42.30;;;;;;617471;233;26614;-71
2022/05/11 12:55:12;;;;;;;3.78;3.40;;;29.20;42.30;;;;;;617590;233;26582;-70
2022/05/11 12:57:39;;;;;;;3.40;3.10;;;29.00;42.70;;;;;;617671;233;26577;-71
2022/05/11 13:00:11;;;;;;;3.37;2.70;;;29.40;42.40;;;;;;617610;233;26807;-71
2022/05/11 13:02:41;;;;;;;3.67;3.37;;;29.80;41.90;;;;;;617385;233;26841;-71
2022/05/11 13:05:07;;;;;;;2.97;2.53;;;30.60;41.10;;;;;;617260;233;26609;-71
2022/05/11 13:07:34;;;;;;;2.60;2.50;;;30.90;40.60;;;;;;617410;233;26614;-71
2022/05/11 13:10:02;;;;;;;2.40;2.30;;;31.40;40.10;;;;;;617205;233;27168;-71
2022/05/11 13:12:28;;;;;;;4.12;3.33;;;32.00;39.60;;;;;;617305;233;26679;-71
2022/05/11 13:14:56;;;;;;;2.65;2.50;;;32.20;39.20;;;;;;617392;233;26615;-71
2022/05/11 13:17:24;;;;;;;3.33;3.12;;;33.20;38.40;;;;;;617410;233;26606;-70
2022/05/11 13:20:02;;;;;;;5.25;3.20;;;33.20;38.40;;;;;;617434;233;26830;-72
2022/05/11 13:22:29;;;;;;;2.58;2.47;;;34.10;37.80;;;;;;617436;233;26879;-71
2022/05/11 13:24:56;;;;;;;2.47;2.37;;;34.60;37.50;;;;;;617482;233;26629;-71
2022/05/11 13:27:32;;;;;;;3.92;3.62;;;34.00;37.80;;;;;;617393;232;26825;-71
2022/05/11 13:30:05;;;;;;;3.60;3.35;;;34.10;37.00;;;;;;619959;230;26856;-71
2022/05/11 13:32:35;;;;;;;4.93;3.60;;;34.80;36.50;;;;;;621953;230;26642;-72
2022/05/11 13:35:22;;;;;;;3.70;2.87;;;35.70;36.10;;;;;;618957;230;26614;-71
2022/05/11 13:38:04;;;;;;;3.60;3.28;;;34.90;35.60;;;;;;618932;230;26858;-71